Time;durP1;ratioP1;P1;durP2;ratioP2;P2;SDS_P1;SDS_P2;PMS_P1;PMS_P2;Temp;Humidity;BMP_temperature;BMP_pressure;BME280_temperature;BME280_humidity;BME280_pressure;Samples;Min_cycle;Max_cycle;Signal;HPM_P1;HPM_P2
2021/11/12 00:14:48;;;;;;;28.42;19.55;;;;;;;;;;5054028;28;20467;-76
2021/11/12 00:17:16;;;;;;;27.90;20.45;;;;;;;;;;5053748;28;20086;-75
2021/11/12 00:19:43;;;;;;;26.35;19.10;;;;;;;;;;5052383;28;20369;-76
2021/11/12 00:22:09;;;;;;;25.70;16.88;;;;;;;;;;5053686;28;20424;-76
2021/11/12 00:24:36;;;;;;;25.90;18.27;;;;;;;;;;5053491;28;20025;-76
2021/11/12 00:27:04;;;;;;;28.52;18.70;;;;;;;;;;5052446;28;20425;-76
2021/11/12 00:29:34;;;;;;;22.67;16.90;;;;;;;;;;5053391;28;20480;-76
2021/11/12 00:42:45;;;;;;;19.88;14.13;;;;;;;;;;5053047;28;20043;-76
2021/11/12 00:45:18;;;;;;;27.77;18.23;;;;;;;;;;5051105;28;20032;-76
2021/11/12 00:47:53;;;;;;;28.40;18.02;;;;;;;;;;5053166;28;20044;-76
2021/11/12 00:55:22;;;;;;;47.47;29.65;;;;;;;;;;5052807;28;20037;-76
2021/11/12 00:57:49;;;;;;;51.38;30.67;;;;;;;;;;5053003;28;20035;-76
2021/11/12 01:00:16;;;;;;;41.97;25.67;;;;;;;;;;5051615;28;20021;-76
2021/11/12 01:02:42;;;;;;;61.63;28.98;;;;;;;;;;5052937;28;20142;-76
2021/11/12 01:05:09;;;;;;;41.25;23.75;;;;;;;;;;5051644;28;20033;-76
2021/11/12 01:07:36;;;;;;;46.22;26.55;;;;;;;;;;5052692;28;20052;-76
2021/11/12 01:10:03;;;;;;;32.38;20.15;;;;;;;;;;5051618;28;20028;-76
2021/11/12 01:12:29;;;;;;;32.10;19.50;;;;;;;;;;5051222;28;20025;-75
2021/11/12 01:14:56;;;;;;;34.85;22.80;;;;;;;;;;5052643;28;20435;-75
2021/11/12 01:17:23;;;;;;;31.67;18.65;;;;;;;;;;5052436;28;20029;-75
2021/11/12 01:19:49;;;;;;;27.20;17.63;;;;;;;;;;5052560;28;20037;-76
2021/11/12 01:22:16;;;;;;;24.65;16.20;;;;;;;;;;5051085;28;20140;-76
2021/11/12 01:24:43;;;;;;;23.75;17.25;;;;;;;;;;5051280;28;20017;-76
2021/11/12 01:27:09;;;;;;;27.38;17.48;;;;;;;;;;5052538;28;20112;-76
2021/11/12 01:29:37;;;;;;;24.20;16.27;;;;;;;;;;5052391;28;20076;-76
2021/11/12 01:34:48;;;;;;;;;;;;;;;;;;5052719;28;20039;-76
2021/11/12 01:37:17;;;;;;;21.25;14.38;;;;;;;;;;5050796;28;20272;-76
2021/11/12 01:39:46;;;;;;;23.35;15.50;;;;;;;;;;5052208;28;20036;-76
2021/11/12 01:42:13;;;;;;;23.35;15.43;;;;;;;;;;5052053;28;20388;-76
2021/11/12 01:44:46;;;;;;;27.60;17.17;;;;;;;;;;5052168;28;20112;-76
2021/11/12 01:47:31;;;;;;;27.00;17.88;;;;;;;;;;5050790;28;20032;-76
2021/11/12 01:50:03;;;;;;;26.70;16.08;;;;;;;;;;5051824;28;20043;-76
2021/11/12 01:52:40;;;;;;;24.13;14.30;;;;;;;;;;5050896;28;20040;-76
2021/11/12 01:55:10;;;;;;;25.52;15.57;;;;;;;;;;5052236;28;20392;-76
2021/11/12 01:58:04;;;;;;;25.33;14.65;;;;;;;;;;5051658;28;20029;-76
2021/11/12 02:00:32;;;;;;;25.45;14.88;;;;;;;;;;5052050;28;20107;-76
2021/11/12 02:02:59;;;;;;;24.00;15.50;;;;;;;;;;5050507;28;20021;-76
2021/11/12 02:05:26;;;;;;;24.60;14.60;;;;;;;;;;5050702;28;20055;-76
2021/11/12 02:07:53;;;;;;;29.05;17.52;;;;;;;;;;5051875;28;20032;-76
2021/11/12 02:10:24;;;;;;;26.98;17.10;;;;;;;;;;5050432;28;20182;-76
2021/11/12 02:15:23;;;;;;;22.92;16.08;;;;;;;;;;5052015;28;20537;-76
2021/11/12 02:17:58;;;;;;;22.85;16.35;;;;;;;;;;5050523;28;20033;-76
2021/11/12 02:20:37;;;;;;;22.40;14.85;;;;;;;;;;5050344;28;20090;-76
2021/11/12 02:23:04;;;;;;;25.27;15.52;;;;;;;;;;5051751;28;20036;-76
2021/11/12 02:28:16;;;;;;;24.75;16.38;;;;;;;;;;5052228;28;20043;-76
2021/11/12 02:30:46;;;;;;;27.77;18.77;;;;;;;;;;5051458;28;20025;-76
2021/11/12 02:33:15;;;;;;;29.08;16.55;;;;;;;;;;5051770;28;20025;-76
2021/11/12 02:36:01;;;;;;;28.88;17.92;;;;;;;;;;5051584;28;20044;-76
2021/11/12 02:38:29;;;;;;;27.77;19.30;;;;;;;;;;5051674;28;20059;-76
2021/11/12 02:40:56;;;;;;;32.40;21.75;;;;;;;;;;5051722;28;20526;-76
2021/11/12 02:43:23;;;;;;;37.30;24.63;;;;;;;;;;5051332;28;20025;-76
2021/11/12 02:45:50;;;;;;;34.92;21.40;;;;;;;;;;5051516;28;20040;-76
2021/11/12 02:48:17;;;;;;;34.33;21.20;;;;;;;;;;5051236;28;20028;-76
2021/11/12 02:50:43;;;;;;;37.03;23.67;;;;;;;;;;5050386;28;20454;-76
2021/11/12 02:53:14;;;;;;;30.02;18.88;;;;;;;;;;5051389;28;20376;-76
2021/11/12 02:55:42;;;;;;;24.98;17.73;;;;;;;;;;5051568;28;20091;-76
2021/11/12 02:58:09;;;;;;;27.38;17.45;;;;;;;;;;5051167;28;20083;-76
2021/11/12 03:00:37;;;;;;;29.75;18.15;;;;;;;;;;5051503;28;20453;-76
2021/11/12 03:03:04;;;;;;;24.55;16.27;;;;;;;;;;5049977;28;20033;-76
2021/11/12 03:05:31;;;;;;;21.17;14.07;;;;;;;;;;5051472;28;20027;-76
2021/11/12 03:07:57;;;;;;;24.73;16.48;;;;;;;;;;5050924;28;20029;-75
2021/11/12 03:10:24;;;;;;;27.13;15.82;;;;;;;;;;5053790;28;20075;-76
2021/11/12 03:12:50;;;;;;;21.50;14.60;;;;;;;;;;5055099;28;20070;-76
2021/11/12 03:15:17;;;;;;;26.30;16.45;;;;;;;;;;5054580;28;20075;-75
2021/11/12 03:17:45;;;;;;;28.00;15.77;;;;;;;;;;5053663;28;20036;-76
2021/11/12 03:20:13;;;;;;;30.65;17.67;;;;;;;;;;5054302;28;20079;-76
2021/11/12 03:22:45;;;;;;;29.30;17.05;;;;;;;;;;5053723;28;20394;-76
2021/11/12 03:25:23;;;;;;;25.40;16.58;;;;;;;;;;5054491;28;20071;-76
2021/11/12 05:44:10;;;;;;;68.28;41.28;;;;;;;;;;5052601;28;20100;-76
2021/11/12 05:57:08;;;;;;;111.88;59.53;;;;;;;;;;5052405;28;20396;-78
2021/11/12 05:59:34;;;;;;;60.70;36.25;;;;;;;;;;5052326;28;20021;-77
2021/11/12 06:02:00;;;;;;;48.03;29.45;;;;;;;;;;5050818;28;20029;-79
2021/11/12 06:04:26;;;;;;;38.60;24.15;;;;;;;;;;5051118;28;20029;-78
2021/11/12 06:06:52;;;;;;;47.13;30.55;;;;;;;;;;5051023;28;20542;-80
2021/11/12 06:09:19;;;;;;;51.10;34.20;;;;;;;;;;5051880;28;20033;-77
2021/11/12 06:11:46;;;;;;;39.08;25.58;;;;;;;;;;5052191;28;20476;-78
2021/11/12 06:14:12;;;;;;;44.42;31.42;;;;;;;;;;5051753;28;20487;-79
2021/11/12 06:16:39;;;;;;;59.58;37.08;;;;;;;;;;5052004;28;20094;-76
2021/11/12 06:19:05;;;;;;;64.57;39.75;;;;;;;;;;5051675;28;20037;-78
2021/11/12 06:21:31;;;;;;;66.75;42.72;;;;;;;;;;5051317;28;20094;-78
2021/11/12 06:23:58;;;;;;;64.35;39.45;;;;;;;;;;5051767;28;20029;-79
2021/11/12 06:26:25;;;;;;;41.05;27.73;;;;;;;;;;5051280;28;20515;-76
2021/11/12 06:28:51;;;;;;;41.40;27.23;;;;;;;;;;5050946;28;20508;-76
2021/11/12 06:31:21;;;;;;;32.53;23.77;;;;;;;;;;5045325;28;20043;-77
2021/11/12 06:33:48;;;;;;;38.22;28.88;;;;;;;;;;5046297;28;20024;-78
2021/11/12 06:36:14;;;;;;;36.33;26.40;;;;;;;;;;5042362;28;20063;-77
2021/11/12 06:38:41;;;;;;;37.38;25.48;;;;;;;;;;5047832;28;20071;-78
2021/11/12 06:41:11;;;;;;;38.63;27.88;;;;;;;;;;5050667;28;20039;-80
2021/11/12 06:43:48;;;;;;;42.75;29.38;;;;;;;;;;5051849;28;20061;-80
2021/11/12 06:51:53;;;;;;;;;;;;;;;;;;5054744;28;20112;-81
2021/11/12 06:54:20;;;;;;;;;;;;;;;;;;5055094;28;19958;-79
2021/11/12 06:56:47;;;;;;;56.95;36.35;;;;;;;;;;5054321;28;20367;-80
2021/11/12 06:59:13;;;;;;;56.78;37.25;;;;;;;;;;5053134;28;20133;-77
2021/11/12 07:01:39;;;;;;;68.65;43.83;;;;;;;;;;5053176;28;20029;-78
2021/11/12 07:04:06;;;;;;;71.55;49.53;;;;;;;;;;5052593;28;20025;-77
2021/11/12 07:06:34;;;;;;;56.30;37.83;;;;;;;;;;5054190;28;20460;-79
2021/11/12 07:09:00;;;;;;;68.18;43.55;;;;;;;;;;5052591;28;20429;-81
2021/11/12 07:11:26;;;;;;;72.63;47.13;;;;;;;;;;5054314;28;20033;-76
2021/11/12 07:13:52;;;;;;;78.93;53.92;;;;;;;;;;5053760;28;20036;-80
2021/11/12 07:16:19;;;;;;;72.47;50.50;;;;;;;;;;5053457;28;20435;-77
2021/11/12 07:18:45;;;;;;;72.30;47.67;;;;;;;;;;5053715;28;20112;-80
2021/11/12 07:21:12;;;;;;;66.90;46.38;;;;;;;;;;5052335;28;20538;-79
2021/11/12 07:23:38;;;;;;;82.65;50.65;;;;;;;;;;5052732;28;20395;-80
2021/11/12 07:26:04;;;;;;;67.22;44.13;;;;;;;;;;5053044;28;20104;-77
2021/11/12 07:28:30;;;;;;;60.45;43.25;;;;;;;;;;5053395;28;20392;-75
2021/11/12 07:30:57;;;;;;;66.68;45.10;;;;;;;;;;5053449;28;20025;-78
2021/11/12 07:33:24;;;;;;;56.88;40.55;;;;;;;;;;5053139;28;20104;-76
2021/11/12 07:41:17;;;;;;;60.97;41.65;;;;;;;;;;5053127;28;20129;-78
2021/11/12 07:48:58;;;;;;;59.45;38.17;;;;;;;;;;5053434;28;20284;-77
2021/11/12 07:51:24;;;;;;;54.90;38.13;;;;;;;;;;5053423;28;20469;-76
2021/11/12 07:53:50;;;;;;;55.20;39.15;;;;;;;;;;5051536;28;20029;-79
2021/11/12 07:56:16;;;;;;;59.45;42.22;;;;;;;;;;5052112;28;20035;-78
2021/11/12 07:58:42;;;;;;;53.88;39.00;;;;;;;;;;5052913;28;20040;-78
2021/11/12 08:01:09;;;;;;;62.97;40.78;;;;;;;;;;5051309;28;20082;-81
2021/11/12 08:03:35;;;;;;;45.03;32.55;;;;;;;;;;5053329;28;20037;-80
2021/11/12 08:06:04;;;;;;;36.67;26.05;;;;;;;;;;5052827;28;20024;-77
2021/11/12 08:08:34;;;;;;;38.45;25.20;;;;;;;;;;5053268;28;20078;-79
2021/11/12 08:11:05;;;;;;;31.02;21.63;;;;;;;;;;5052577;28;20045;-79
2021/11/12 08:16:17;;;;;;;27.67;20.33;;;;;;;;;;5053087;28;20045;-79
2021/11/12 08:24:36;;;;;;;38.40;17.95;;;;;;;;;;5052519;28;20040;-79
2021/11/12 08:37:18;;;;;;;23.02;14.68;;;;;;;;;;5052273;28;20464;-79
2021/11/12 08:47:45;;;;;;;18.73;13.77;;;;;;;;;;5051060;28;20029;-79
2021/11/12 08:50:17;;;;;;;21.48;15.60;;;;;;;;;;5051371;28;20021;-81
2021/11/12 08:52:44;;;;;;;22.38;14.90;;;;;;;;;;5052490;28;20036;-80
2021/11/12 08:55:11;;;;;;;20.73;13.95;;;;;;;;;;5051626;28;20029;-78
2021/11/12 08:57:37;;;;;;;18.88;14.50;;;;;;;;;;5050500;28;20044;-78
2021/11/12 09:00:05;;;;;;;20.05;14.45;;;;;;;;;;5051766;28;20043;-79
2021/11/12 09:02:31;;;;;;;20.35;14.23;;;;;;;;;;5051556;28;20051;-78
2021/11/12 09:04:57;;;;;;;25.13;14.23;;;;;;;;;;5050728;28;20103;-79
2021/11/12 09:07:24;;;;;;;21.60;15.07;;;;;;;;;;5050434;28;20031;-79
2021/11/12 09:09:54;;;;;;;21.60;14.88;;;;;;;;;;5051097;28;20035;-79
2021/11/12 09:12:22;;;;;;;22.83;14.52;;;;;;;;;;5051040;28;20036;-75
2021/11/12 09:14:54;;;;;;;25.35;13.25;;;;;;;;;;5051279;28;20036;-80
2021/11/12 09:17:21;;;;;;;23.65;14.90;;;;;;;;;;5050860;28;20111;-80
2021/11/12 09:19:52;;;;;;;19.73;13.82;;;;;;;;;;5047018;28;20051;-78
2021/11/12 09:22:20;;;;;;;25.35;16.13;;;;;;;;;;5050497;28;20056;-77
2021/11/12 09:24:47;;;;;;;22.02;14.80;;;;;;;;;;5051181;28;20100;-74
2021/11/12 09:27:14;;;;;;;24.05;16.83;;;;;;;;;;5050806;28;20032;-75
2021/11/12 09:29:41;;;;;;;23.63;18.08;;;;;;;;;;5051074;28;20029;-78
2021/11/12 09:32:08;;;;;;;28.02;19.83;;;;;;;;;;5046627;28;20021;-75
2021/11/12 09:34:37;;;;;;;24.42;16.98;;;;;;;;;;5050477;28;20029;-82
2021/11/12 09:37:04;;;;;;;23.33;15.32;;;;;;;;;;5050949;28;20476;-75
2021/11/12 09:39:30;;;;;;;22.75;14.65;;;;;;;;;;5050442;28;20764;-74
2021/11/12 09:41:56;;;;;;;18.13;14.10;;;;;;;;;;5050734;28;20029;-76
2021/11/12 09:44:23;;;;;;;20.73;14.30;;;;;;;;;;5050532;28;20028;-75
2021/11/12 09:46:49;;;;;;;18.98;14.07;;;;;;;;;;5049756;28;20214;-74
2021/11/12 09:49:16;;;;;;;19.73;15.20;;;;;;;;;;5051078;28;20388;-74
2021/11/12 09:51:42;;;;;;;19.90;14.98;;;;;;;;;;5051161;28;20053;-77
2021/11/12 09:54:08;;;;;;;23.25;15.65;;;;;;;;;;5050816;28;20087;-75
2021/11/12 09:56:34;;;;;;;24.75;17.00;;;;;;;;;;5050160;28;20044;-76
2021/11/12 09:59:01;;;;;;;23.40;15.73;;;;;;;;;;5050892;28;20033;-73
2021/11/12 10:01:29;;;;;;;21.08;14.95;;;;;;;;;;5051090;28;20024;-78
2021/11/12 10:04:03;;;;;;;26.50;14.48;;;;;;;;;;5048080;28;20496;-76
2021/11/12 10:06:29;;;;;;;21.05;12.95;;;;;;;;;;5039818;28;20468;-77
2021/11/12 10:08:56;;;;;;;17.75;12.80;;;;;;;;;;5036121;28;20100;-76
2021/11/12 10:11:26;;;;;;;15.30;10.35;;;;;;;;;;5050237;28;20102;-78
2021/11/12 10:14:09;;;;;;;15.45;11.00;;;;;;;;;;5041233;28;20069;-78
2021/11/12 10:16:35;;;;;;;19.75;11.65;;;;;;;;;;5029975;28;20507;-77
2021/11/12 10:19:18;;;;;;;17.02;11.07;;;;;;;;;;5040860;28;20094;-77
2021/11/12 10:21:46;;;;;;;14.52;10.60;;;;;;;;;;5056927;28;20466;-75
2021/11/12 10:24:17;;;;;;;15.68;10.80;;;;;;;;;;5057365;28;20132;-76
2021/11/12 10:26:55;;;;;;;16.55;11.00;;;;;;;;;;5057476;28;20025;-77
2021/11/12 10:29:29;;;;;;;14.20;10.88;;;;;;;;;;5056019;28;20430;-73
2021/11/12 10:32:01;;;;;;;11.90;9.80;;;;;;;;;;5057430;28;20107;-77
2021/11/12 10:34:28;;;;;;;11.90;8.80;;;;;;;;;;5056989;28;20036;-77
2021/11/12 10:37:13;;;;;;;57.22;40.60;;;;;;;;;;5057131;28;20037;-75
2021/11/12 10:39:40;;;;;;;26.90;19.70;;;;;;;;;;5057427;28;20040;-76
2021/11/12 10:42:17;;;;;;;20.05;13.95;;;;;;;;;;5055890;28;20037;-77
2021/11/12 10:44:51;;;;;;;27.70;18.73;;;;;;;;;;5056803;28;20032;-76
2021/11/12 10:47:18;;;;;;;16.27;11.73;;;;;;;;;;5057497;28;20025;-75
2021/11/12 10:49:47;;;;;;;13.68;10.65;;;;;;;;;;5056768;28;20033;-76
2021/11/12 10:52:17;;;;;;;14.60;10.23;;;;;;;;;;5057145;28;20032;-77
2021/11/12 10:55:06;;;;;;;13.57;9.65;;;;;;;;;;5044269;28;21999;-76
2021/11/12 10:57:40;;;;;;;14.43;9.93;;;;;;;;;;5056600;28;20041;-75
2021/11/12 11:00:25;;;;;;;13.88;9.80;;;;;;;;;;5054980;28;20083;-75
2021/11/12 11:02:51;;;;;;;;;;;;;;;;;;5056034;28;20032;-78
2021/11/12 11:05:19;;;;;;;10.45;8.43;;;;;;;;;;5055395;28;19962;-73
2021/11/12 11:08:04;;;;;;;9.63;7.80;;;;;;;;;;5055827;28;20029;-76
2021/11/12 11:10:30;;;;;;;;;;;;;;;;;;5057075;28;20032;-77
2021/11/12 11:13:01;;;;;;;10.82;7.20;;;;;;;;;;5056245;28;19909;-77
2021/11/12 11:15:30;;;;;;;21.95;8.27;;;;;;;;;;5056633;28;20064;-78
2021/11/12 11:18:03;;;;;;;12.10;8.23;;;;;;;;;;5054275;28;20511;-75
2021/11/12 11:20:30;;;;;;;8.27;6.63;;;;;;;;;;5056781;28;20083;-76
2021/11/12 11:22:59;;;;;;;8.02;6.40;;;;;;;;;;5056588;28;20041;-76
2021/11/12 11:25:27;;;;;;;13.23;7.65;;;;;;;;;;5054881;28;20033;-76
2021/11/12 11:27:54;;;;;;;9.35;7.40;;;;;;;;;;5055674;28;20143;-79
2021/11/12 11:30:21;;;;;;;8.82;6.88;;;;;;;;;;5051270;28;20031;-76
2021/11/12 11:32:48;;;;;;;11.63;7.57;;;;;;;;;;5051261;28;20100;-77
2021/11/12 11:35:15;;;;;;;8.02;6.45;;;;;;;;;;5052232;28;20555;-77
2021/11/12 11:37:42;;;;;;;8.32;6.22;;;;;;;;;;5049134;28;20028;-79
2021/11/12 11:40:12;;;;;;;8.18;5.80;;;;;;;;;;5052374;28;20453;-74
2021/11/12 11:42:39;;;;;;;17.95;7.22;;;;;;;;;;5052601;28;20499;-74
2021/11/12 11:45:05;;;;;;;8.45;5.95;;;;;;;;;;5051613;28;20158;-76
2021/11/12 11:47:33;;;;;;;17.27;8.50;;;;;;;;;;5053254;28;20437;-77
2021/11/12 11:50:00;;;;;;;10.18;6.22;;;;;;;;;;5052268;28;20404;-76
2021/11/12 11:52:28;;;;;;;9.82;7.55;;;;;;;;;;5052335;28;20074;-79
2021/11/12 11:54:55;;;;;;;8.77;5.90;;;;;;;;;;5049626;28;20045;-78
2021/11/12 11:57:23;;;;;;;6.57;4.95;;;;;;;;;;5052898;28;20025;-82
2021/11/12 11:59:49;;;;;;;7.05;5.13;;;;;;;;;;5052105;28;20028;-76
2021/11/12 12:02:17;;;;;;;6.30;4.55;;;;;;;;;;5052614;28;20500;-77
2021/11/12 12:05:00;;;;;;;5.13;4.25;;;;;;;;;;5051297;28;20142;-78
2021/11/12 12:07:28;;;;;;;6.55;4.50;;;;;;;;;;5049755;28;20043;-68
2021/11/12 12:09:58;;;;;;;8.15;4.65;;;;;;;;;;5051622;28;20043;-78
2021/11/12 12:12:43;;;;;;;19.38;7.15;;;;;;;;;;5051893;28;20029;-79
2021/11/12 12:15:12;;;;;;;5.55;3.20;;;;;;;;;;5050709;28;20103;-78
2021/11/12 12:17:40;;;;;;;9.95;6.28;;;;;;;;;;5052004;28;20388;-78
2021/11/12 12:31:25;;;;;;;5.65;3.78;;;;;;;;;;5051529;28;20071;-79
2021/11/12 13:22:49;;;;;;;144.80;101.50;;;;;;;;;;5051225;28;20465;-77
2021/11/12 13:25:34;;;;;;;37.08;26.88;;;;;;;;;;5032687;28;20048;-77
2021/11/12 13:28:00;;;;;;;;;;;;;;;;;;5032504;28;20030;-79
2021/11/12 13:30:27;;;;;;;18.30;10.35;;;;;;;;;;5032581;28;20273;-75
2021/11/12 13:32:53;;;;;;;11.85;8.98;;;;;;;;;;5037302;28;20033;-76
2021/11/12 13:35:32;;;;;;;21.50;14.35;;;;;;;;;;5050099;28;20041;-76
2021/11/12 13:37:58;;;;;;;10.15;7.65;;;;;;;;;;5049981;28;20526;-75
2021/11/12 13:40:29;;;;;;;12.05;9.00;;;;;;;;;;5050495;28;20036;-76
2021/11/12 13:42:55;;;;;;;9.38;5.57;;;;;;;;;;5051655;28;20555;-79
2021/11/12 13:45:23;;;;;;;9.50;7.07;;;;;;;;;;5051590;28;20163;-76
2021/11/12 13:48:00;;;;;;;13.05;6.38;;;;;;;;;;5050433;28;20032;-75
2021/11/12 13:50:26;;;;;;;8.85;5.20;;;;;;;;;;5049934;28;20025;-79
2021/11/12 13:52:53;;;;;;;15.05;5.20;;;;;;;;;;5051183;28;20028;-77
2021/11/12 13:55:20;;;;;;;6.63;4.45;;;;;;;;;;5051447;28;20388;-77
2021/11/12 13:57:58;;;;;;;8.10;4.80;;;;;;;;;;5051610;28;20029;-77
2021/11/12 14:00:26;;;;;;;12.20;5.05;;;;;;;;;;5051389;28;20025;-79
2021/11/12 14:03:12;;;;;;;7.93;5.35;;;;;;;;;;5051049;28;20357;-78
2021/11/12 14:05:39;;;;;;;7.72;5.10;;;;;;;;;;5049415;28;20032;-78
2021/11/12 14:08:06;;;;;;;7.63;4.93;;;;;;;;;;5051936;28;20126;-79
2021/11/12 14:10:34;;;;;;;6.40;5.28;;;;;;;;;;5051467;28;20028;-77
2021/11/12 14:13:03;;;;;;;7.75;4.90;;;;;;;;;;5052054;28;20029;-77
2021/11/12 14:15:31;;;;;;;8.52;5.35;;;;;;;;;;5050407;28;20045;-76
2021/11/12 14:21:09;;;;;;;12.20;7.18;;;;;;;;;;5049919;28;20048;-78
2021/11/12 14:23:52;;;;;;;10.98;6.88;;;;;;;;;;5050816;28;20040;-74
2021/11/12 14:26:45;;;;;;;13.43;8.23;;;;;;;;;;5034996;28;20036;-77
2021/11/12 14:29:17;;;;;;;13.07;10.40;;;;;;;;;;5052097;28;20115;-78
2021/11/12 14:36:59;;;;;;;19.92;14.55;;;;;;;;;;5052075;28;20045;-81
2021/11/12 14:48:12;;;;;;;27.10;18.83;;;;;;;;;;5049627;28;20544;-75
2021/11/12 14:53:30;;;;;;;;;;;;;;;;;;5052372;28;20037;-76
2021/11/12 14:58:45;;;;;;;54.13;41.45;;;;;;;;;;5051638;28;20109;-77
2021/11/12 15:01:15;;;;;;;45.38;34.90;;;;;;;;;;5051843;28;20070;-82
2021/11/12 15:03:45;;;;;;;38.78;31.27;;;;;;;;;;5051142;28;20025;-75
2021/11/12 15:06:12;;;;;;;26.92;21.85;;;;;;;;;;5055681;28;20032;-82
2021/11/12 15:08:47;;;;;;;20.98;14.93;;;;;;;;;;5055084;28;20064;-80
2021/11/12 15:11:14;;;;;;;17.33;13.52;;;;;;;;;;5055493;28;20025;-76
2021/11/12 15:13:42;;;;;;;19.48;11.68;;;;;;;;;;5054309;28;20028;-75
2021/11/12 15:16:19;;;;;;;22.08;12.35;;;;;;;;;;5055477;28;20044;-80
2021/11/12 15:18:45;;;;;;;22.70;15.57;;;;;;;;;;5054246;28;20032;-77
2021/11/12 15:21:18;;;;;;;23.50;17.98;;;;;;;;;;5054997;28;20049;-82
2021/11/12 15:34:14;;;;;;;16.70;11.43;;;;;;;;;;5054435;28;20370;-77
2021/11/12 15:36:47;;;;;;;26.08;13.77;;;;;;;;;;5034980;28;20037;-80
2021/11/12 15:39:17;;;;;;;20.33;15.32;;;;;;;;;;5034810;28;20048;-76
2021/11/12 15:44:21;;;;;;;24.98;17.10;;;;;;;;;;5054669;28;20131;-74
2021/11/12 15:46:50;;;;;;;24.10;17.23;;;;;;;;;;5052308;28;20036;-78
2021/11/12 15:49:19;;;;;;;22.13;18.20;;;;;;;;;;5052722;28;20728;-78
2021/11/12 15:51:54;;;;;;;22.48;18.20;;;;;;;;;;5053556;28;20036;-78
2021/11/12 16:00:09;;;;;;;153.27;109.40;;;;;;;;;;5053903;28;20055;-75
2021/11/12 16:08:02;;;;;;;;;;;;;;;;;;5052522;28;20110;-77
2021/11/12 16:26:27;;;;;;;150.18;105.85;;;;;;;;;;5053958;28;19955;-73
2021/11/12 16:31:41;;;;;;;;;;;;;;;;;;5054302;28;20430;-77
2021/11/12 16:34:14;;;;;;;159.25;119.57;;;;;;;;;;5053497;28;19908;-77
2021/11/12 16:36:52;;;;;;;169.52;123.18;;;;;;;;;;5053859;28;20033;-76
2021/11/12 16:39:25;;;;;;;199.40;143.77;;;;;;;;;;5053474;28;20029;-75
2021/11/12 16:41:58;;;;;;;203.65;144.75;;;;;;;;;;5052840;28;20036;-73
2021/11/12 16:44:32;;;;;;;215.55;155.88;;;;;;;;;;5048704;28;20039;-76
2021/11/12 16:50:03;;;;;;;159.63;118.70;;;;;;;;;;5050240;28;20040;-75
2021/11/12 17:48:46;;;;;;;78.15;56.90;;;;;;;;;;5050142;28;20518;-79
2021/11/12 17:51:31;;;;;;;79.07;53.05;;;;;;;;;;5050777;28;20033;-80
2021/11/12 18:01:35;;;;;;;81.03;55.75;;;;;;;;;;5050977;28;20029;-77
2021/11/12 21:46:48;;;;;;;33.13;24.48;;;;;;;;;;5032583;28;20041;-74
2021/11/12 21:49:15;;;;;;;56.90;40.72;;;;;;;;;;5032208;28;20026;-75
2021/11/12 21:51:42;;;;;;;86.07;58.17;;;;;;;;;;5032529;28;20039;-77
2021/11/12 21:54:09;;;;;;;74.65;55.85;;;;;;;;;;5032344;28;20445;-75
2021/11/12 21:56:35;;;;;;;89.47;65.25;;;;;;;;;;5032271;28;20045;-77
2021/11/12 21:59:02;;;;;;;77.07;53.63;;;;;;;;;;5032101;28;20021;-74
2021/11/12 22:01:29;;;;;;;61.55;45.80;;;;;;;;;;5031334;28;20032;-75
2021/11/12 22:03:55;;;;;;;74.80;55.30;;;;;;;;;;5031614;28;20025;-76
2021/11/12 22:06:21;;;;;;;54.35;39.92;;;;;;;;;;5031644;28;20109;-74
2021/11/12 22:08:47;;;;;;;46.63;33.25;;;;;;;;;;5030499;28;20481;-74
2021/11/12 22:11:14;;;;;;;44.58;32.67;;;;;;;;;;5031890;28;20155;-77
2021/11/12 22:13:41;;;;;;;33.30;22.58;;;;;;;;;;5031423;28;20025;-77
2021/11/12 22:16:08;;;;;;;33.65;23.48;;;;;;;;;;5031540;28;20107;-77
2021/11/12 22:18:59;;;;;;;38.40;25.52;;;;;;;;;;5029988;28;20038;-74
2021/11/12 22:21:25;;;;;;;47.08;30.83;;;;;;;;;;5031867;28;20058;-73
2021/11/12 22:23:52;;;;;;;53.90;35.05;;;;;;;;;;5031906;28;20039;-77
2021/11/12 22:26:20;;;;;;;58.22;41.10;;;;;;;;;;5032014;28;20022;-74
2021/11/12 22:28:47;;;;;;;64.82;44.55;;;;;;;;;;5032106;28;20075;-75
2021/11/12 22:31:13;;;;;;;59.30;42.63;;;;;;;;;;5031693;28;20017;-75
2021/11/12 22:33:39;;;;;;;51.35;36.17;;;;;;;;;;5031835;28;20050;-75
2021/11/12 22:36:08;;;;;;;65.90;42.03;;;;;;;;;;5031523;28;20063;-77
2021/11/12 22:38:34;;;;;;;74.40;50.78;;;;;;;;;;5032106;28;20060;-74
2021/11/12 22:41:00;;;;;;;78.68;51.67;;;;;;;;;;5030560;28;20469;-75
2021/11/12 22:43:27;;;;;;;65.97;45.38;;;;;;;;;;5031944;28;20030;-76
2021/11/12 22:45:53;;;;;;;71.72;48.55;;;;;;;;;;5031936;28;20029;-74
2021/11/12 22:48:20;;;;;;;71.93;47.10;;;;;;;;;;5031538;28;20045;-77
2021/11/12 22:50:47;;;;;;;43.95;31.95;;;;;;;;;;5031901;28;20033;-76
2021/11/12 22:53:13;;;;;;;53.85;43.47;;;;;;;;;;5031596;28;20033;-75
2021/11/12 22:55:39;;;;;;;44.25;32.03;;;;;;;;;;5031825;28;20069;-76
2021/11/12 22:58:05;;;;;;;40.47;30.42;;;;;;;;;;5031581;28;20104;-75
2021/11/12 23:00:31;;;;;;;34.53;24.38;;;;;;;;;;5031654;28;20030;-74
2021/11/12 23:02:58;;;;;;;26.20;19.38;;;;;;;;;;5031773;28;20044;-75
2021/11/12 23:05:24;;;;;;;20.20;13.10;;;;;;;;;;5031511;28;20021;-76
2021/11/12 23:07:51;;;;;;;21.60;12.57;;;;;;;;;;5031664;28;20033;-75
2021/11/12 23:10:17;;;;;;;23.67;15.05;;;;;;;;;;5031652;28;20075;-76
2021/11/12 23:12:43;;;;;;;28.30;16.92;;;;;;;;;;5031636;28;20060;-75
2021/11/12 23:15:10;;;;;;;30.65;18.63;;;;;;;;;;5031408;28;20026;-75
2021/11/12 23:17:36;;;;;;;31.08;18.13;;;;;;;;;;5031714;28;20091;-73
2021/11/12 23:20:03;;;;;;;42.08;24.20;;;;;;;;;;5031545;28;20029;-76
2021/11/12 23:22:29;;;;;;;38.80;23.85;;;;;;;;;;5031211;28;20058;-74
2021/11/12 23:24:55;;;;;;;27.63;18.17;;;;;;;;;;5031127;28;20063;-75
2021/11/12 23:27:21;;;;;;;36.15;23.85;;;;;;;;;;5035096;28;20030;-74
2021/11/12 23:29:47;;;;;;;54.70;32.50;;;;;;;;;;5035189;28;20033;-76
2021/11/12 23:32:14;;;;;;;26.45;17.42;;;;;;;;;;5034886;28;20427;-75
2021/11/12 23:34:40;;;;;;;26.42;17.27;;;;;;;;;;5034967;28;20021;-75
2021/11/12 23:37:06;;;;;;;24.08;16.83;;;;;;;;;;5034873;28;20136;-77
2021/11/12 23:39:32;;;;;;;25.70;16.08;;;;;;;;;;5034854;28;20029;-77
2021/11/12 23:41:58;;;;;;;25.05;16.92;;;;;;;;;;5035078;28;20029;-74
2021/11/12 23:44:25;;;;;;;50.47;30.83;;;;;;;;;;5034650;28;20022;-75
2021/11/12 23:46:51;;;;;;;67.22;38.72;;;;;;;;;;5035018;28;20155;-74
2021/11/12 23:49:17;;;;;;;36.50;25.00;;;;;;;;;;5034832;28;20051;-76
2021/11/12 23:51:46;;;;;;;34.00;23.42;;;;;;;;;;5034625;28;20029;-76
2021/11/12 23:54:12;;;;;;;46.08;28.88;;;;;;;;;;5034621;28;20025;-74
2021/11/12 23:56:38;;;;;;;37.28;26.77;;;;;;;;;;5034332;28;20033;-75
2021/11/12 23:59:05;;;;;;;34.47;23.80;;;;;;;;;;5033279;28;20021;-74
